createdAt,value
2023-02-08T00:03:58.105Z,1.85
2023-02-08T00:09:01.342Z,1.90
2023-02-08T00:14:03.034Z,1.90
2023-02-08T00:19:04.511Z,2.75
2023-02-08T00:24:06.546Z,2.50
2023-02-08T00:29:08.066Z,2.45
2023-02-08T00:34:09.566Z,2.28
2023-02-08T00:39:11.070Z,2.03
2023-02-08T00:44:12.572Z,2.53
2023-02-08T00:49:14.201Z,1.90
2023-02-08T00:54:19.574Z,2.00
2023-02-08T00:59:21.212Z,2.08
2023-02-08T01:04:22.724Z,1.60
2023-02-08T01:09:24.605Z,2.88
2023-02-08T01:14:26.127Z,2.72
2023-02-08T01:19:27.601Z,2.63
2023-02-08T01:24:29.069Z,3.08
2023-02-08T01:29:30.530Z,2.72
2023-02-08T01:34:32.025Z,2.28
2023-02-08T01:39:33.575Z,3.25
2023-02-08T01:44:53.754Z,3.08
2023-02-08T01:49:55.775Z,2.95
2023-02-08T01:55:02.169Z,2.88
2023-02-08T02:00:07.299Z,3.92
2023-02-08T02:05:08.989Z,3.03
2023-02-08T02:10:10.417Z,3.63
2023-02-08T02:15:12.177Z,3.03
2023-02-08T02:20:25.910Z,3.90
2023-02-08T02:25:45.969Z,3.58
2023-02-08T02:30:47.405Z,3.95
2023-02-08T02:36:09.080Z,3.53
2023-02-08T02:41:36.304Z,2.70
2023-02-08T02:46:43.298Z,3.97
2023-02-08T02:51:51.190Z,3.00
2023-02-08T02:56:55.800Z,2.88
2023-02-08T03:01:57.714Z,3.33
2023-02-08T03:07:04.877Z,4.20
2023-02-08T03:12:18.347Z,3.65
2023-02-08T03:17:19.741Z,4.47
2023-02-08T03:22:23.846Z,3.40
2023-02-08T03:27:32.439Z,3.67
2023-02-08T03:32:37.217Z,3.60
2023-02-08T03:38:02.024Z,4.25
2023-02-08T03:43:08.430Z,6.30
2023-02-08T03:48:11.588Z,4.75
2023-02-08T03:53:15.074Z,4.00
2023-02-08T03:58:20.113Z,4.45
2023-02-08T04:03:24.293Z,3.78
2023-02-08T04:08:26.048Z,4.70
2023-02-08T04:13:27.540Z,4.97
2023-02-08T04:18:28.985Z,5.05
2023-02-08T04:23:30.440Z,5.28
2023-02-08T04:28:31.922Z,5.10
2023-02-08T04:33:33.377Z,5.40
2023-02-08T04:38:34.865Z,4.35
2023-02-08T04:43:36.553Z,4.97
2023-02-08T04:48:38.461Z,4.22
2023-02-08T04:53:39.938Z,4.82
2023-02-08T04:58:41.411Z,5.22
2023-02-08T05:03:42.907Z,5.85
2023-02-08T05:08:44.362Z,4.32
2023-02-08T05:13:45.828Z,4.43
2023-02-08T05:18:47.306Z,4.70
2023-02-08T05:23:49.914Z,5.10
2023-02-08T05:28:51.425Z,5.03
2023-02-08T05:33:53.400Z,4.30
2023-02-08T05:38:54.907Z,5.70
2023-02-08T05:43:56.411Z,4.55
2023-02-08T05:48:58.721Z,5.00
2023-02-08T05:54:00.198Z,4.88
2023-02-08T05:59:02.176Z,5.13
2023-02-08T06:04:03.767Z,7.18
2023-02-08T06:09:05.250Z,5.60
2023-02-08T06:14:06.725Z,4.40
2023-02-08T06:19:08.174Z,5.38
2023-02-08T06:24:11.453Z,5.90
2023-02-08T06:29:12.941Z,6.22
2023-02-08T06:34:14.430Z,5.22
2023-02-08T06:39:15.910Z,6.65
2023-02-08T06:44:17.435Z,4.88
2023-02-08T06:49:19.133Z,4.88
2023-02-08T06:54:20.605Z,5.53
2023-02-08T06:59:22.101Z,4.60
2023-02-08T07:04:23.583Z,2.97
2023-02-08T07:09:25.090Z,3.80
2023-02-08T07:14:26.557Z,3.50
2023-02-08T07:19:28.407Z,4.75
2023-02-08T07:24:30.089Z,4.25
2023-02-08T07:29:32.455Z,3.72
2023-02-08T07:34:34.662Z,4.50
2023-02-08T07:39:36.112Z,5.75
2023-02-08T07:44:38.218Z,4.47
2023-02-08T07:49:39.786Z,4.50
2023-02-08T07:54:41.297Z,4.10
2023-02-08T07:59:42.765Z,4.57
2023-02-08T08:04:44.266Z,3.70
2023-02-08T08:09:45.726Z,3.33
2023-02-08T08:14:47.267Z,3.22
2023-02-08T08:19:48.786Z,4.25
2023-02-08T08:24:50.250Z,3.13
2023-02-08T08:29:51.810Z,3.67
2023-02-08T08:34:53.333Z,2.95
2023-02-08T08:39:54.790Z,3.55
2023-02-08T08:44:56.471Z,2.85
2023-02-08T08:49:59.282Z,3.95
2023-02-08T08:55:01.015Z,4.22
2023-02-08T09:00:02.640Z,2.63
2023-02-08T09:05:05.499Z,3.25
2023-02-08T09:10:07.206Z,3.60
2023-02-08T09:15:08.898Z,4.07
2023-02-08T09:20:10.601Z,2.72
2023-02-08T09:25:12.131Z,3.88
2023-02-08T09:30:13.918Z,2.80
2023-02-08T09:35:16.173Z,3.63
2023-02-08T09:40:33.112Z,3.03
2023-02-08T09:45:58.945Z,3.78
2023-02-08T09:51:07.226Z,3.72
2023-02-08T09:56:11.578Z,2.65
2023-02-08T10:01:18.771Z,3.75
2023-02-08T10:06:20.673Z,2.85
2023-02-08T10:11:30.698Z,3.70
2023-02-08T10:16:50.682Z,2.15
2023-02-08T10:22:04.397Z,2.60
2023-02-08T10:27:14.995Z,2.53
2023-02-08T10:32:35.447Z,2.92
2023-02-08T10:37:38.941Z,2.53
2023-02-08T10:42:44.496Z,2.58
2023-02-08T10:47:50.145Z,2.50
2023-02-08T10:52:58.926Z,2.28
2023-02-08T10:58:04.478Z,2.05
2023-02-08T11:03:27.564Z,2.08
2023-02-08T11:08:29.328Z,1.92
2023-02-08T11:13:36.852Z,2.33
2023-02-08T11:18:46.687Z,2.42
2023-02-08T11:23:53.995Z,2.97
2023-02-08T11:29:21.923Z,2.88
2023-02-08T11:34:38.736Z,2.05
2023-02-08T11:39:45.725Z,2.38
2023-02-08T11:44:47.828Z,1.67
2023-02-08T11:49:54.845Z,2.35
2023-02-08T11:55:11.289Z,1.83
2023-02-08T12:00:20.774Z,2.38
2023-02-08T12:05:26.980Z,2.03
2023-02-08T12:10:38.308Z,2.72
2023-02-08T12:15:58.208Z,1.73
2023-02-08T12:21:11.116Z,2.28
2023-02-08T12:26:12.541Z,2.10
2023-02-08T12:31:32.902Z,2.40
2023-02-08T12:36:49.733Z,2.10
2023-02-08T12:42:02.495Z,1.83
2023-02-08T12:47:16.282Z,1.50
2023-02-08T12:52:31.571Z,1.95
2023-02-08T12:57:33.238Z,1.90
2023-02-08T13:02:46.230Z,2.05
2023-02-08T13:07:50.464Z,2.05
2023-02-08T13:12:53.568Z,1.63
2023-02-08T13:17:55.812Z,1.70
2023-02-08T13:23:00.632Z,1.40
2023-02-08T13:28:03.185Z,2.60
2023-02-08T13:33:12.162Z,1.35
2023-02-08T13:38:33.208Z,1.17
2023-02-08T13:43:39.693Z,1.55
2023-02-08T13:48:45.105Z,2.20
2023-02-08T13:53:52.587Z,1.70
2023-02-08T13:58:58.534Z,1.90
2023-02-08T14:04:09.898Z,1.67
2023-02-08T14:09:14.129Z,1.70
2023-02-08T14:14:17.965Z,1.73
2023-02-08T14:19:24.418Z,3.15
2023-02-08T14:24:36.034Z,2.33
2023-02-08T14:29:37.856Z,2.50
2023-02-08T14:34:40.150Z,2.90
2023-02-08T14:39:41.703Z,3.25
2023-02-08T14:44:43.437Z,2.67
2023-02-08T14:49:45.607Z,2.60
2023-02-08T14:54:48.802Z,2.75
2023-02-08T14:59:50.825Z,3.55
2023-02-08T15:04:52.636Z,2.75
2023-02-08T15:09:54.387Z,2.85
2023-02-08T15:14:57.809Z,3.58
2023-02-08T15:19:59.989Z,2.83
2023-02-08T15:25:05.289Z,4.28
2023-02-08T15:30:08.435Z,2.42
2023-02-08T15:35:15.722Z,3.63
2023-02-08T15:40:25.005Z,2.72
2023-02-08T15:45:31.388Z,2.50
2023-02-08T15:50:33.607Z,2.90
2023-02-08T15:55:37.284Z,2.38
2023-02-08T16:00:42.617Z,2.92
2023-02-08T16:05:48.952Z,2.45
2023-02-08T16:10:53.384Z,2.33
2023-02-08T16:16:07.144Z,2.35
2023-02-08T16:21:19.514Z,2.67
2023-02-08T16:26:23.744Z,2.92
2023-02-08T16:31:30.220Z,3.08
2023-02-08T16:36:33.630Z,2.63
2023-02-08T16:41:58.819Z,2.53
2023-02-08T16:47:25.421Z,2.78
2023-02-08T16:52:26.956Z,2.55
2023-02-08T16:57:38.443Z,1.38
2023-02-08T17:02:40.029Z,2.55
2023-02-08T17:07:41.472Z,2.58
2023-02-08T17:12:42.975Z,3.10
2023-02-08T17:17:44.485Z,2.58
2023-02-08T17:22:46.071Z,2.70
2023-02-08T17:27:50.967Z,2.05
2023-02-08T17:32:52.639Z,2.40
2023-02-08T17:37:55.151Z,2.45
2023-02-08T17:42:57.017Z,2.42
2023-02-08T17:48:01.795Z,2.50
2023-02-08T17:53:04.077Z,3.17
2023-02-08T17:58:05.590Z,2.75
2023-02-08T18:03:07.193Z,3.22
2023-02-08T18:08:08.770Z,2.95
2023-02-08T18:13:10.305Z,2.50
2023-02-08T18:18:11.958Z,2.50
2023-02-08T18:23:13.937Z,2.03
2023-02-08T18:28:17.083Z,1.67
2023-02-08T18:33:18.579Z,2.95
2023-02-08T18:38:20.141Z,2.00
2023-02-08T18:43:21.623Z,2.20
2023-02-08T18:48:23.535Z,2.33
2023-02-08T18:53:27.321Z,2.72
2023-02-08T18:58:28.920Z,2.80
2023-02-08T19:03:30.402Z,2.35
2023-02-08T19:08:32.141Z,2.65
2023-02-08T19:13:35.523Z,2.10
2023-02-08T19:18:37.042Z,3.38
2023-02-08T19:23:38.519Z,2.45
2023-02-08T19:28:40.646Z,3.10
2023-02-08T19:33:45.478Z,2.70
2023-02-08T19:38:48.150Z,3.08
2023-02-08T19:43:49.926Z,3.00
2023-02-08T19:48:52.981Z,2.53
2023-02-08T19:53:56.657Z,3.60
2023-02-08T19:58:58.381Z,3.40
2023-02-08T20:04:00.216Z,3.42
2023-02-08T20:09:02.154Z,2.97
2023-02-08T20:14:04.375Z,2.92
2023-02-08T20:19:05.825Z,2.75
2023-02-08T20:24:11.766Z,2.42
2023-02-08T20:29:13.455Z,2.25
2023-02-08T20:34:16.118Z,2.03
2023-02-08T20:39:18.602Z,1.83
2023-02-08T20:44:20.213Z,2.30
2023-02-08T20:49:25.378Z,2.15
2023-02-08T20:54:26.916Z,2.85
2023-02-08T20:59:28.472Z,3.20
2023-02-08T21:04:29.978Z,2.70
2023-02-08T21:09:34.914Z,2.15
2023-02-08T21:14:36.725Z,2.92
2023-02-08T21:19:39.678Z,2.58
2023-02-08T21:24:45.143Z,2.47
2023-02-08T21:29:49.686Z,2.35
2023-02-08T21:34:52.122Z,2.50
2023-02-08T21:39:53.660Z,3.40
2023-02-08T21:44:55.203Z,3.15
2023-02-08T21:50:15.382Z,3.95
2023-02-08T21:55:16.889Z,3.67
2023-02-08T22:00:18.430Z,4.25
2023-02-08T22:05:22.101Z,4.65
2023-02-08T22:10:25.118Z,9.85
2023-02-08T22:15:28.726Z,5.10
2023-02-08T22:20:30.545Z,6.07
2023-02-08T22:25:32.067Z,10.02
2023-02-08T22:30:33.756Z,4.38
2023-02-08T22:35:35.269Z,5.00
2023-02-08T22:40:36.818Z,6.47
2023-02-08T22:45:38.350Z,4.63
2023-02-08T22:50:40.062Z,5.00
2023-02-08T22:55:47.638Z,5.00
2023-02-08T23:00:49.417Z,4.28
2023-02-08T23:05:51.415Z,3.28
2023-02-08T23:10:58.015Z,3.47
2023-02-08T23:15:59.657Z,3.83
2023-02-08T23:21:05.538Z,4.25
2023-02-08T23:26:07.646Z,3.42
2023-02-08T23:31:10.425Z,3.50
2023-02-08T23:36:13.202Z,4.38
2023-02-08T23:41:16.853Z,3.03
2023-02-08T23:46:19.992Z,3.35
2023-02-08T23:51:22.927Z,3.38
2023-02-08T23:56:26.267Z,3.08
